sensor_id;sensor_type;location;lat;lon;timestamp;P1;durP1;ratioP1;P2;durP2;ratioP2
33844;SDS011;20145;43.118;25.694;2022-08-26T00:01:30;24.10;;;4.53;;
33844;SDS011;20145;43.118;25.694;2022-08-26T00:03:57;25.20;;;4.63;;
33844;SDS011;20145;43.118;25.694;2022-08-26T00:06:24;18.70;;;3.85;;
33844;SDS011;20145;43.118;25.694;2022-08-26T00:08:50;21.35;;;4.57;;
33844;SDS011;20145;43.118;25.694;2022-08-26T00:11:15;21.73;;;4.35;;
33844;SDS011;20145;43.118;25.694;2022-08-26T00:13:41;23.00;;;4.18;;
33844;SDS011;20145;43.118;25.694;2022-08-26T00:16:07;20.58;;;4.20;;
33844;SDS011;20145;43.118;25.694;2022-08-26T00:18:33;18.42;;;4.55;;
33844;SDS011;20145;43.118;25.694;2022-08-26T00:21:00;24.00;;;5.05;;
33844;SDS011;20145;43.118;25.694;2022-08-26T00:23:25;27.85;;;4.30;;
33844;SDS011;20145;43.118;25.694;2022-08-26T00:25:51;23.23;;;4.43;;
33844;SDS011;20145;43.118;25.694;2022-08-26T00:28:17;26.10;;;4.60;;
33844;SDS011;20145;43.118;25.694;2022-08-26T00:30:43;21.27;;;4.72;;
33844;SDS011;20145;43.118;25.694;2022-08-26T00:33:12;27.70;;;4.47;;
33844;SDS011;20145;43.118;25.694;2022-08-26T00:35:38;15.35;;;3.65;;
33844;SDS011;20145;43.118;25.694;2022-08-26T00:38:04;24.35;;;3.60;;
33844;SDS011;20145;43.118;25.694;2022-08-26T00:40:31;19.92;;;4.40;;
33844;SDS011;20145;43.118;25.694;2022-08-26T00:43:00;23.98;;;5.00;;
33844;SDS011;20145;43.118;25.694;2022-08-26T00:45:28;22.83;;;4.35;;
33844;SDS011;20145;43.118;25.694;2022-08-26T00:48:19;19.33;;;3.47;;
33844;SDS011;20145;43.118;25.694;2022-08-26T00:50:48;19.17;;;3.95;;
33844;SDS011;20145;43.118;25.694;2022-08-26T00:53:18;27.00;;;4.93;;
33844;SDS011;20145;43.118;25.694;2022-08-26T00:55:56;27.48;;;4.70;;
33844;SDS011;20145;43.118;25.694;2022-08-26T00:58:27;32.00;;;4.85;;
33844;SDS011;20145;43.118;25.694;2022-08-26T01:00:55;22.02;;;5.18;;
33844;SDS011;20145;43.118;25.694;2022-08-26T01:03:22;23.77;;;5.00;;
33844;SDS011;20145;43.118;25.694;2022-08-26T01:05:54;20.95;;;4.35;;
33844;SDS011;20145;43.118;25.694;2022-08-26T01:08:22;18.60;;;4.03;;
33844;SDS011;20145;43.118;25.694;2022-08-26T01:10:49;17.40;;;4.97;;
33844;SDS011;20145;43.118;25.694;2022-08-26T01:13:15;33.33;;;6.60;;
33844;SDS011;20145;43.118;25.694;2022-08-26T01:15:43;32.33;;;5.75;;
33844;SDS011;20145;43.118;25.694;2022-08-26T01:18:11;23.92;;;5.22;;
33844;SDS011;20145;43.118;25.694;2022-08-26T01:23:43;23.08;;;5.97;;
33844;SDS011;20145;43.118;25.694;2022-08-26T01:26:13;32.70;;;6.10;;
33844;SDS011;20145;43.118;25.694;2022-08-26T01:28:47;37.67;;;5.72;;
33844;SDS011;20145;43.118;25.694;2022-08-26T01:31:17;23.63;;;7.10;;
33844;SDS011;20145;43.118;25.694;2022-08-26T01:36:35;28.05;;;6.63;;
33844;SDS011;20145;43.118;25.694;2022-08-26T01:39:02;27.08;;;5.45;;
33844;SDS011;20145;43.118;25.694;2022-08-26T01:41:29;24.83;;;6.85;;
33844;SDS011;20145;43.118;25.694;2022-08-26T01:43:56;30.35;;;5.18;;
33844;SDS011;20145;43.118;25.694;2022-08-26T01:46:23;23.33;;;4.88;;
33844;SDS011;20145;43.118;25.694;2022-08-26T01:48:51;24.05;;;4.95;;
33844;SDS011;20145;43.118;25.694;2022-08-26T01:51:19;25.48;;;5.13;;
33844;SDS011;20145;43.118;25.694;2022-08-26T01:53:47;22.13;;;5.57;;
33844;SDS011;20145;43.118;25.694;2022-08-26T01:56:13;30.35;;;5.10;;
33844;SDS011;20145;43.118;25.694;2022-08-26T01:58:41;28.13;;;4.65;;
33844;SDS011;20145;43.118;25.694;2022-08-26T02:01:09;28.48;;;5.03;;
33844;SDS011;20145;43.118;25.694;2022-08-26T02:03:35;25.27;;;5.55;;
33844;SDS011;20145;43.118;25.694;2022-08-26T02:06:10;27.40;;;5.38;;
33844;SDS011;20145;43.118;25.694;2022-08-26T02:08:49;27.30;;;5.35;;
33844;SDS011;20145;43.118;25.694;2022-08-26T02:11:18;28.23;;;5.65;;
33844;SDS011;20145;43.118;25.694;2022-08-26T02:13:46;19.58;;;4.85;;
33844;SDS011;20145;43.118;25.694;2022-08-26T02:16:15;33.00;;;5.00;;
33844;SDS011;20145;43.118;25.694;2022-08-26T02:18:44;22.35;;;4.65;;
33844;SDS011;20145;43.118;25.694;2022-08-26T02:21:09;27.40;;;5.50;;
33844;SDS011;20145;43.118;25.694;2022-08-26T02:23:36;23.70;;;4.47;;
33844;SDS011;20145;43.118;25.694;2022-08-26T02:26:04;29.88;;;4.88;;
33844;SDS011;20145;43.118;25.694;2022-08-26T02:28:35;18.55;;;4.68;;
33844;SDS011;20145;43.118;25.694;2022-08-26T02:31:10;23.20;;;4.30;;
33844;SDS011;20145;43.118;25.694;2022-08-26T02:33:36;20.42;;;4.90;;
33844;SDS011;20145;43.118;25.694;2022-08-26T02:36:03;33.67;;;4.85;;
33844;SDS011;20145;43.118;25.694;2022-08-26T02:38:29;20.48;;;4.63;;
33844;SDS011;20145;43.118;25.694;2022-08-26T02:40:55;15.13;;;4.28;;
33844;SDS011;20145;43.118;25.694;2022-08-26T02:43:21;29.70;;;6.10;;
33844;SDS011;20145;43.118;25.694;2022-08-26T02:45:46;26.25;;;4.20;;
33844;SDS011;20145;43.118;25.694;2022-08-26T02:48:13;21.48;;;5.63;;
33844;SDS011;20145;43.118;25.694;2022-08-26T02:50:40;22.88;;;4.93;;
33844;SDS011;20145;43.118;25.694;2022-08-26T02:53:06;29.45;;;5.20;;
33844;SDS011;20145;43.118;25.694;2022-08-26T02:55:32;23.95;;;4.63;;
33844;SDS011;20145;43.118;25.694;2022-08-26T02:57:58;22.55;;;4.85;;
33844;SDS011;20145;43.118;25.694;2022-08-26T03:00:25;24.38;;;5.35;;
33844;SDS011;20145;43.118;25.694;2022-08-26T03:02:52;33.28;;;5.32;;
33844;SDS011;20145;43.118;25.694;2022-08-26T03:05:18;17.42;;;4.45;;
33844;SDS011;20145;43.118;25.694;2022-08-26T03:07:46;22.90;;;4.00;;
33844;SDS011;20145;43.118;25.694;2022-08-26T03:10:12;17.50;;;4.22;;
33844;SDS011;20145;43.118;25.694;2022-08-26T03:12:38;24.13;;;4.68;;
33844;SDS011;20145;43.118;25.694;2022-08-26T03:15:05;21.98;;;4.55;;
33844;SDS011;20145;43.118;25.694;2022-08-26T03:17:31;25.60;;;5.43;;
33844;SDS011;20145;43.118;25.694;2022-08-26T03:19:57;21.55;;;5.13;;
33844;SDS011;20145;43.118;25.694;2022-08-26T03:22:23;21.25;;;4.95;;
33844;SDS011;20145;43.118;25.694;2022-08-26T03:24:50;26.95;;;5.28;;
33844;SDS011;20145;43.118;25.694;2022-08-26T03:27:15;20.92;;;4.78;;
33844;SDS011;20145;43.118;25.694;2022-08-26T03:29:41;24.58;;;5.32;;
33844;SDS011;20145;43.118;25.694;2022-08-26T03:32:26;22.85;;;4.82;;
33844;SDS011;20145;43.118;25.694;2022-08-26T03:34:51;26.00;;;5.13;;
33844;SDS011;20145;43.118;25.694;2022-08-26T03:37:17;34.53;;;5.18;;
33844;SDS011;20145;43.118;25.694;2022-08-26T03:39:43;16.15;;;4.50;;
33844;SDS011;20145;43.118;25.694;2022-08-26T03:42:09;21.00;;;4.50;;
33844;SDS011;20145;43.118;25.694;2022-08-26T03:44:35;30.90;;;5.97;;
33844;SDS011;20145;43.118;25.694;2022-08-26T03:47:02;14.85;;;4.35;;
33844;SDS011;20145;43.118;25.694;2022-08-26T03:49:27;30.98;;;6.25;;
33844;SDS011;20145;43.118;25.694;2022-08-26T03:51:55;22.60;;;5.72;;
33844;SDS011;20145;43.118;25.694;2022-08-26T03:54:20;18.05;;;4.45;;
33844;SDS011;20145;43.118;25.694;2022-08-26T03:56:46;26.05;;;5.65;;
33844;SDS011;20145;43.118;25.694;2022-08-26T03:59:12;25.13;;;4.00;;
33844;SDS011;20145;43.118;25.694;2022-08-26T04:01:37;21.23;;;6.00;;
33844;SDS011;20145;43.118;25.694;2022-08-26T04:04:03;26.90;;;4.85;;
33844;SDS011;20145;43.118;25.694;2022-08-26T04:06:31;25.42;;;4.65;;
33844;SDS011;20145;43.118;25.694;2022-08-26T04:09:00;23.20;;;4.43;;
33844;SDS011;20145;43.118;25.694;2022-08-26T04:11:29;21.45;;;5.25;;
33844;SDS011;20145;43.118;25.694;2022-08-26T04:13:58;18.92;;;4.18;;
33844;SDS011;20145;43.118;25.694;2022-08-26T04:16:25;27.73;;;6.03;;
33844;SDS011;20145;43.118;25.694;2022-08-26T04:18:51;29.13;;;5.07;;
33844;SDS011;20145;43.118;25.694;2022-08-26T04:21:16;21.27;;;4.53;;
33844;SDS011;20145;43.118;25.694;2022-08-26T04:23:42;24.63;;;5.57;;
33844;SDS011;20145;43.118;25.694;2022-08-26T04:26:08;29.23;;;4.35;;
33844;SDS011;20145;43.118;25.694;2022-08-26T04:28:34;18.05;;;3.70;;
33844;SDS011;20145;43.118;25.694;2022-08-26T04:31:00;25.17;;;5.15;;
33844;SDS011;20145;43.118;25.694;2022-08-26T04:33:26;22.05;;;5.03;;
33844;SDS011;20145;43.118;25.694;2022-08-26T04:36:01;24.73;;;4.60;;
33844;SDS011;20145;43.118;25.694;2022-08-26T04:38:29;26.33;;;5.00;;
33844;SDS011;20145;43.118;25.694;2022-08-26T04:40:55;24.65;;;4.53;;
33844;SDS011;20145;43.118;25.694;2022-08-26T04:43:21;23.90;;;4.22;;
33844;SDS011;20145;43.118;25.694;2022-08-26T04:45:53;19.88;;;4.47;;
33844;SDS011;20145;43.118;25.694;2022-08-26T04:48:19;20.00;;;4.43;;
33844;SDS011;20145;43.118;25.694;2022-08-26T04:50:45;22.33;;;4.60;;
33844;SDS011;20145;43.118;25.694;2022-08-26T04:53:11;27.27;;;5.05;;
33844;SDS011;20145;43.118;25.694;2022-08-26T04:55:37;27.38;;;5.07;;
33844;SDS011;20145;43.118;25.694;2022-08-26T04:58:03;19.15;;;4.35;;
33844;SDS011;20145;43.118;25.694;2022-08-26T05:00:29;27.73;;;6.10;;
33844;SDS011;20145;43.118;25.694;2022-08-26T05:02:55;20.90;;;3.83;;
33844;SDS011;20145;43.118;25.694;2022-08-26T05:05:20;17.80;;;3.58;;
33844;SDS011;20145;43.118;25.694;2022-08-26T05:07:46;21.23;;;4.45;;
33844;SDS011;20145;43.118;25.694;2022-08-26T05:10:11;22.92;;;3.97;;
33844;SDS011;20145;43.118;25.694;2022-08-26T05:12:37;17.38;;;4.50;;
33844;SDS011;20145;43.118;25.694;2022-08-26T05:15:04;25.85;;;4.80;;
33844;SDS011;20145;43.118;25.694;2022-08-26T05:17:30;19.63;;;5.35;;
33844;SDS011;20145;43.118;25.694;2022-08-26T05:19:57;13.15;;;3.50;;
33844;SDS011;20145;43.118;25.694;2022-08-26T05:22:22;20.52;;;4.65;;
33844;SDS011;20145;43.118;25.694;2022-08-26T05:24:48;17.55;;;4.38;;
33844;SDS011;20145;43.118;25.694;2022-08-26T05:27:13;19.02;;;3.80;;
33844;SDS011;20145;43.118;25.694;2022-08-26T05:29:39;23.42;;;4.95;;
33844;SDS011;20145;43.118;25.694;2022-08-26T05:32:05;21.13;;;3.60;;
33844;SDS011;20145;43.118;25.694;2022-08-26T05:34:31;27.48;;;4.47;;
33844;SDS011;20145;43.118;25.694;2022-08-26T05:36:56;13.48;;;4.07;;
33844;SDS011;20145;43.118;25.694;2022-08-26T05:39:22;20.73;;;3.65;;
33844;SDS011;20145;43.118;25.694;2022-08-26T05:41:49;25.77;;;5.28;;
33844;SDS011;20145;43.118;25.694;2022-08-26T05:44:15;22.80;;;4.13;;
33844;SDS011;20145;43.118;25.694;2022-08-26T05:46:43;21.85;;;3.45;;
33844;SDS011;20145;43.118;25.694;2022-08-26T05:49:10;17.17;;;4.07;;
33844;SDS011;20145;43.118;25.694;2022-08-26T05:51:37;22.65;;;4.00;;
33844;SDS011;20145;43.118;25.694;2022-08-26T05:54:03;20.45;;;4.00;;
33844;SDS011;20145;43.118;25.694;2022-08-26T05:56:31;27.02;;;4.70;;
33844;SDS011;20145;43.118;25.694;2022-08-26T05:58:57;28.98;;;4.65;;
33844;SDS011;20145;43.118;25.694;2022-08-26T06:01:26;24.45;;;4.72;;
33844;SDS011;20145;43.118;25.694;2022-08-26T06:03:53;27.63;;;4.80;;
33844;SDS011;20145;43.118;25.694;2022-08-26T06:06:26;23.90;;;4.45;;
33844;SDS011;20145;43.118;25.694;2022-08-26T06:08:53;23.83;;;4.60;;
33844;SDS011;20145;43.118;25.694;2022-08-26T06:11:21;22.23;;;4.18;;
33844;SDS011;20145;43.118;25.694;2022-08-26T06:13:49;22.92;;;4.60;;
33844;SDS011;20145;43.118;25.694;2022-08-26T06:16:17;15.65;;;4.13;;
33844;SDS011;20145;43.118;25.694;2022-08-26T06:18:45;33.33;;;4.93;;
33844;SDS011;20145;43.118;25.694;2022-08-26T06:23:54;18.45;;;3.75;;
33844;SDS011;20145;43.118;25.694;2022-08-26T06:26:41;21.13;;;4.18;;
33844;SDS011;20145;43.118;25.694;2022-08-26T06:29:11;23.07;;;4.13;;
33844;SDS011;20145;43.118;25.694;2022-08-26T06:31:36;18.02;;;3.53;;
33844;SDS011;20145;43.118;25.694;2022-08-26T06:34:02;20.30;;;3.67;;
33844;SDS011;20145;43.118;25.694;2022-08-26T06:36:29;17.52;;;4.93;;
33844;SDS011;20145;43.118;25.694;2022-08-26T06:39:02;21.48;;;4.50;;
33844;SDS011;20145;43.118;25.694;2022-08-26T06:41:29;11.98;;;3.70;;
33844;SDS011;20145;43.118;25.694;2022-08-26T06:43:59;27.42;;;4.28;;
33844;SDS011;20145;43.118;25.694;2022-08-26T06:46:25;17.83;;;4.05;;
33844;SDS011;20145;43.118;25.694;2022-08-26T06:48:52;28.05;;;4.13;;
33844;SDS011;20145;43.118;25.694;2022-08-26T06:51:20;15.90;;;3.75;;
33844;SDS011;20145;43.118;25.694;2022-08-26T06:53:48;17.02;;;3.70;;
33844;SDS011;20145;43.118;25.694;2022-08-26T06:56:17;18.35;;;4.05;;
33844;SDS011;20145;43.118;25.694;2022-08-26T06:58:44;25.08;;;4.15;;
33844;SDS011;20145;43.118;25.694;2022-08-26T07:01:14;21.67;;;4.90;;
33844;SDS011;20145;43.118;25.694;2022-08-26T07:03:47;23.02;;;4.55;;
33844;SDS011;20145;43.118;25.694;2022-08-26T07:06:15;17.58;;;4.80;;
33844;SDS011;20145;43.118;25.694;2022-08-26T07:08:45;15.25;;;3.83;;
33844;SDS011;20145;43.118;25.694;2022-08-26T07:11:12;19.60;;;4.10;;
33844;SDS011;20145;43.118;25.694;2022-08-26T07:13:37;16.80;;;3.90;;
33844;SDS011;20145;43.118;25.694;2022-08-26T07:16:04;12.82;;;4.20;;
33844;SDS011;20145;43.118;25.694;2022-08-26T07:18:32;15.75;;;4.25;;
33844;SDS011;20145;43.118;25.694;2022-08-26T07:21:00;15.27;;;3.65;;
33844;SDS011;20145;43.118;25.694;2022-08-26T07:23:27;18.08;;;3.78;;
33844;SDS011;20145;43.118;25.694;2022-08-26T07:25:53;15.43;;;3.85;;
33844;SDS011;20145;43.118;25.694;2022-08-26T07:28:19;20.45;;;3.80;;
33844;SDS011;20145;43.118;25.694;2022-08-26T07:30:44;16.27;;;4.57;;
33844;SDS011;20145;43.118;25.694;2022-08-26T07:33:10;15.13;;;3.88;;
33844;SDS011;20145;43.118;25.694;2022-08-26T07:35:36;20.85;;;3.50;;
33844;SDS011;20145;43.118;25.694;2022-08-26T07:38:02;14.70;;;3.85;;
33844;SDS011;20145;43.118;25.694;2022-08-26T07:40:27;13.90;;;3.97;;
33844;SDS011;20145;43.118;25.694;2022-08-26T07:42:53;17.77;;;4.13;;
33844;SDS011;20145;43.118;25.694;2022-08-26T07:45:18;19.88;;;3.97;;
33844;SDS011;20145;43.118;25.694;2022-08-26T07:47:44;15.18;;;3.65;;
33844;SDS011;20145;43.118;25.694;2022-08-26T07:50:09;15.80;;;3.60;;
33844;SDS011;20145;43.118;25.694;2022-08-26T07:52:35;12.60;;;3.53;;
33844;SDS011;20145;43.118;25.694;2022-08-26T07:55:03;11.48;;;4.25;;
33844;SDS011;20145;43.118;25.694;2022-08-26T07:57:48;12.02;;;3.90;;
33844;SDS011;20145;43.118;25.694;2022-08-26T08:00:14;21.20;;;4.10;;
33844;SDS011;20145;43.118;25.694;2022-08-26T08:02:40;22.02;;;3.65;;
33844;SDS011;20145;43.118;25.694;2022-08-26T08:05:09;11.77;;;3.17;;
33844;SDS011;20145;43.118;25.694;2022-08-26T08:07:35;16.88;;;3.60;;
33844;SDS011;20145;43.118;25.694;2022-08-26T08:10:02;14.65;;;3.67;;
33844;SDS011;20145;43.118;25.694;2022-08-26T08:12:28;14.02;;;3.38;;
33844;SDS011;20145;43.118;25.694;2022-08-26T08:14:54;9.40;;;3.08;;
33844;SDS011;20145;43.118;25.694;2022-08-26T08:17:19;19.77;;;3.28;;
33844;SDS011;20145;43.118;25.694;2022-08-26T08:19:45;17.27;;;4.25;;
33844;SDS011;20145;43.118;25.694;2022-08-26T08:22:11;10.65;;;3.92;;
33844;SDS011;20145;43.118;25.694;2022-08-26T08:24:36;16.65;;;3.53;;
33844;SDS011;20145;43.118;25.694;2022-08-26T08:27:02;13.82;;;3.25;;
33844;SDS011;20145;43.118;25.694;2022-08-26T08:29:28;11.02;;;3.42;;
33844;SDS011;20145;43.118;25.694;2022-08-26T08:31:57;12.95;;;4.00;;
33844;SDS011;20145;43.118;25.694;2022-08-26T08:34:24;13.90;;;3.55;;
33844;SDS011;20145;43.118;25.694;2022-08-26T08:36:52;13.60;;;3.90;;
33844;SDS011;20145;43.118;25.694;2022-08-26T08:39:18;11.05;;;3.42;;
33844;SDS011;20145;43.118;25.694;2022-08-26T08:44:38;11.75;;;3.70;;
33844;SDS011;20145;43.118;25.694;2022-08-26T08:55:57;19.25;;;3.55;;
33844;SDS011;20145;43.118;25.694;2022-08-26T08:58:38;15.23;;;3.38;;
33844;SDS011;20145;43.118;25.694;2022-08-26T09:01:45;13.02;;;3.72;;
33844;SDS011;20145;43.118;25.694;2022-08-26T09:06:46;17.02;;;3.45;;
33844;SDS011;20145;43.118;25.694;2022-08-26T09:09:26;15.68;;;3.63;;
33844;SDS011;20145;43.118;25.694;2022-08-26T09:11:59;15.75;;;4.20;;
33844;SDS011;20145;43.118;25.694;2022-08-26T09:14:26;8.93;;;3.50;;
33844;SDS011;20145;43.118;25.694;2022-08-26T09:17:15;17.33;;;3.25;;
33844;SDS011;20145;43.118;25.694;2022-08-26T09:19:53;14.70;;;4.28;;
33844;SDS011;20145;43.118;25.694;2022-08-26T09:22:31;16.73;;;4.25;;
33844;SDS011;20145;43.118;25.694;2022-08-26T09:24:59;11.55;;;3.63;;
33844;SDS011;20145;43.118;25.694;2022-08-26T09:27:41;13.93;;;2.90;;
33844;SDS011;20145;43.118;25.694;2022-08-26T09:30:13;18.05;;;3.75;;
33844;SDS011;20145;43.118;25.694;2022-08-26T09:32:42;24.77;;;3.88;;
33844;SDS011;20145;43.118;25.694;2022-08-26T09:35:26;13.02;;;3.42;;
33844;SDS011;20145;43.118;25.694;2022-08-26T09:37:57;15.90;;;4.05;;
33844;SDS011;20145;43.118;25.694;2022-08-26T09:45:34;16.70;;;4.10;;
33844;SDS011;20145;43.118;25.694;2022-08-26T09:48:00;17.23;;;3.70;;
33844;SDS011;20145;43.118;25.694;2022-08-26T09:55:48;19.88;;;5.32;;
33844;SDS011;20145;43.118;25.694;2022-08-26T09:58:37;12.60;;;3.17;;
33844;SDS011;20145;43.118;25.694;2022-08-26T10:01:07;15.07;;;2.97;;
33844;SDS011;20145;43.118;25.694;2022-08-26T10:03:38;9.30;;;3.53;;
33844;SDS011;20145;43.118;25.694;2022-08-26T10:06:06;16.92;;;3.00;;
33844;SDS011;20145;43.118;25.694;2022-08-26T10:09:09;10.15;;;3.40;;
33844;SDS011;20145;43.118;25.694;2022-08-26T10:11:45;14.60;;;3.40;;
33844;SDS011;20145;43.118;25.694;2022-08-26T10:17:01;12.63;;;4.07;;
33844;SDS011;20145;43.118;25.694;2022-08-26T10:19:32;12.73;;;3.50;;
33844;SDS011;20145;43.118;25.694;2022-08-26T10:22:04;10.32;;;3.17;;
33844;SDS011;20145;43.118;25.694;2022-08-26T10:24:43;15.10;;;4.25;;
33844;SDS011;20145;43.118;25.694;2022-08-26T10:30:05;10.23;;;3.15;;
33844;SDS011;20145;43.118;25.694;2022-08-26T10:32:40;21.55;;;3.88;;
33844;SDS011;20145;43.118;25.694;2022-08-26T10:35:12;9.93;;;3.88;;
33844;SDS011;20145;43.118;25.694;2022-08-26T10:37:54;12.18;;;3.65;;
33844;SDS011;20145;43.118;25.694;2022-08-26T10:40:25;12.20;;;3.70;;
33844;SDS011;20145;43.118;25.694;2022-08-26T10:45:20;9.88;;;2.95;;
33844;SDS011;20145;43.118;25.694;2022-08-26T10:47:54;17.38;;;3.35;;
33844;SDS011;20145;43.118;25.694;2022-08-26T10:50:35;12.80;;;3.20;;
33844;SDS011;20145;43.118;25.694;2022-08-26T10:58:56;11.57;;;3.58;;
33844;SDS011;20145;43.118;25.694;2022-08-26T11:01:50;19.35;;;3.47;;
33844;SDS011;20145;43.118;25.694;2022-08-26T11:04:43;20.73;;;3.72;;
33844;SDS011;20145;43.118;25.694;2022-08-26T11:20:54;10.32;;;3.08;;
33844;SDS011;20145;43.118;25.694;2022-08-26T11:30:58;14.07;;;3.15;;
33844;SDS011;20145;43.118;25.694;2022-08-26T11:42:22;13.88;;;3.75;;
33844;SDS011;20145;43.118;25.694;2022-08-26T11:47:29;6.85;;;3.42;;
33844;SDS011;20145;43.118;25.694;2022-08-26T11:50:16;13.20;;;3.58;;
33844;SDS011;20145;43.118;25.694;2022-08-26T11:52:58;12.63;;;3.72;;
33844;SDS011;20145;43.118;25.694;2022-08-26T11:55:32;12.18;;;3.67;;
33844;SDS011;20145;43.118;25.694;2022-08-26T11:58:00;10.60;;;3.00;;
33844;SDS011;20145;43.118;25.694;2022-08-26T12:00:29;16.48;;;3.47;;
33844;SDS011;20145;43.118;25.694;2022-08-26T12:03:00;11.82;;;3.22;;
33844;SDS011;20145;43.118;25.694;2022-08-26T12:05:33;15.23;;;3.67;;
33844;SDS011;20145;43.118;25.694;2022-08-26T12:08:06;13.77;;;3.55;;
33844;SDS011;20145;43.118;25.694;2022-08-26T12:10:36;13.32;;;3.08;;
33844;SDS011;20145;43.118;25.694;2022-08-26T12:13:03;18.67;;;3.92;;
33844;SDS011;20145;43.118;25.694;2022-08-26T12:15:30;21.15;;;3.83;;
33844;SDS011;20145;43.118;25.694;2022-08-26T12:18:14;12.73;;;3.63;;
33844;SDS011;20145;43.118;25.694;2022-08-26T12:20:41;12.27;;;2.95;;
33844;SDS011;20145;43.118;25.694;2022-08-26T12:26:40;17.67;;;3.33;;
33844;SDS011;20145;43.118;25.694;2022-08-26T12:28:48;17.75;;;3.67;;
33844;SDS011;20145;43.118;25.694;2022-08-26T12:31:27;11.45;;;3.17;;
33844;SDS011;20145;43.118;25.694;2022-08-26T12:34:12;17.70;;;3.72;;
33844;SDS011;20145;43.118;25.694;2022-08-26T12:39:50;19.95;;;3.60;;
33844;SDS011;20145;43.118;25.694;2022-08-26T12:44:41;13.30;;;3.33;;
33844;SDS011;20145;43.118;25.694;2022-08-26T12:47:20;17.50;;;3.72;;
33844;SDS011;20145;43.118;25.694;2022-08-26T12:50:15;23.17;;;3.20;;
33844;SDS011;20145;43.118;25.694;2022-08-26T12:58:10;17.02;;;3.78;;
33844;SDS011;20145;43.118;25.694;2022-08-26T13:00:46;13.75;;;3.13;;
33844;SDS011;20145;43.118;25.694;2022-08-26T13:06:13;12.77;;;3.40;;
33844;SDS011;20145;43.118;25.694;2022-08-26T13:14:06;13.65;;;3.20;;
33844;SDS011;20145;43.118;25.694;2022-08-26T13:16:37;26.35;;;3.40;;
33844;SDS011;20145;43.118;25.694;2022-08-26T13:19:05;16.70;;;3.72;;
33844;SDS011;20145;43.118;25.694;2022-08-26T13:21:48;10.38;;;2.75;;
33844;SDS011;20145;43.118;25.694;2022-08-26T13:24:27;18.30;;;3.55;;
33844;SDS011;20145;43.118;25.694;2022-08-26T13:26:57;16.23;;;3.58;;
33844;SDS011;20145;43.118;25.694;2022-08-26T13:29:22;17.20;;;3.33;;
33844;SDS011;20145;43.118;25.694;2022-08-26T13:31:48;16.90;;;3.55;;
33844;SDS011;20145;43.118;25.694;2022-08-26T13:34:15;10.82;;;3.28;;
33844;SDS011;20145;43.118;25.694;2022-08-26T13:36:43;20.92;;;3.75;;
33844;SDS011;20145;43.118;25.694;2022-08-26T13:39:10;15.63;;;3.17;;
33844;SDS011;20145;43.118;25.694;2022-08-26T13:41:36;9.27;;;3.22;;
33844;SDS011;20145;43.118;25.694;2022-08-26T13:44:02;15.25;;;3.20;;
33844;SDS011;20145;43.118;25.694;2022-08-26T13:46:28;14.88;;;3.30;;
33844;SDS011;20145;43.118;25.694;2022-08-26T13:48:54;13.43;;;3.55;;
33844;SDS011;20145;43.118;25.694;2022-08-26T13:51:20;14.55;;;3.47;;
33844;SDS011;20145;43.118;25.694;2022-08-26T13:53:47;18.20;;;3.22;;
33844;SDS011;20145;43.118;25.694;2022-08-26T13:56:13;17.83;;;3.22;;
33844;SDS011;20145;43.118;25.694;2022-08-26T13:58:39;12.52;;;3.00;;
33844;SDS011;20145;43.118;25.694;2022-08-26T14:01:05;17.77;;;3.30;;
33844;SDS011;20145;43.118;25.694;2022-08-26T14:03:30;12.90;;;3.20;;
33844;SDS011;20145;43.118;25.694;2022-08-26T14:05:56;14.43;;;3.83;;
33844;SDS011;20145;43.118;25.694;2022-08-26T14:08:22;17.25;;;3.78;;
33844;SDS011;20145;43.118;25.694;2022-08-26T14:10:48;12.18;;;3.40;;
33844;SDS011;20145;43.118;25.694;2022-08-26T14:13:14;8.75;;;3.20;;
33844;SDS011;20145;43.118;25.694;2022-08-26T14:15:40;9.75;;;3.47;;
33844;SDS011;20145;43.118;25.694;2022-08-26T14:18:06;16.52;;;3.60;;
33844;SDS011;20145;43.118;25.694;2022-08-26T14:20:34;13.23;;;4.45;;
33844;SDS011;20145;43.118;25.694;2022-08-26T14:23:00;18.30;;;3.88;;
33844;SDS011;20145;43.118;25.694;2022-08-26T14:25:27;19.63;;;4.38;;
33844;SDS011;20145;43.118;25.694;2022-08-26T14:27:53;13.73;;;3.63;;
33844;SDS011;20145;43.118;25.694;2022-08-26T14:30:21;17.50;;;3.53;;
33844;SDS011;20145;43.118;25.694;2022-08-26T14:32:52;12.93;;;4.10;;
33844;SDS011;20145;43.118;25.694;2022-08-26T14:35:22;14.07;;;3.70;;
33844;SDS011;20145;43.118;25.694;2022-08-26T14:37:49;16.10;;;5.07;;
33844;SDS011;20145;43.118;25.694;2022-08-26T14:40:17;16.58;;;3.75;;
33844;SDS011;20145;43.118;25.694;2022-08-26T14:42:48;17.55;;;3.35;;
33844;SDS011;20145;43.118;25.694;2022-08-26T14:45:18;19.58;;;5.47;;
33844;SDS011;20145;43.118;25.694;2022-08-26T14:47:47;19.83;;;3.80;;
33844;SDS011;20145;43.118;25.694;2022-08-26T14:50:15;18.23;;;3.72;;
33844;SDS011;20145;43.118;25.694;2022-08-26T14:52:42;15.77;;;4.25;;
33844;SDS011;20145;43.118;25.694;2022-08-26T14:55:27;14.10;;;3.35;;
33844;SDS011;20145;43.118;25.694;2022-08-26T14:57:54;20.25;;;3.60;;
33844;SDS011;20145;43.118;25.694;2022-08-26T15:00:20;15.68;;;4.47;;
33844;SDS011;20145;43.118;25.694;2022-08-26T15:02:45;16.02;;;3.72;;
33844;SDS011;20145;43.118;25.694;2022-08-26T15:05:11;19.98;;;3.80;;
33844;SDS011;20145;43.118;25.694;2022-08-26T15:07:37;13.98;;;3.45;;
33844;SDS011;20145;43.118;25.694;2022-08-26T15:10:04;24.85;;;4.45;;
33844;SDS011;20145;43.118;25.694;2022-08-26T15:12:32;21.13;;;3.40;;
33844;SDS011;20145;43.118;25.694;2022-08-26T15:14:57;16.95;;;4.43;;
33844;SDS011;20145;43.118;25.694;2022-08-26T15:17:23;11.02;;;4.88;;
33844;SDS011;20145;43.118;25.694;2022-08-26T15:19:49;13.57;;;4.05;;
33844;SDS011;20145;43.118;25.694;2022-08-26T15:22:14;11.07;;;4.60;;
33844;SDS011;20145;43.118;25.694;2022-08-26T15:24:40;18.42;;;4.38;;
33844;SDS011;20145;43.118;25.694;2022-08-26T15:27:06;16.73;;;4.18;;
33844;SDS011;20145;43.118;25.694;2022-08-26T15:29:34;22.77;;;5.55;;
33844;SDS011;20145;43.118;25.694;2022-08-26T15:32:00;68.28;;;8.93;;
33844;SDS011;20145;43.118;25.694;2022-08-26T15:34:26;36.72;;;5.95;;
33844;SDS011;20145;43.118;25.694;2022-08-26T15:36:52;23.73;;;4.45;;
33844;SDS011;20145;43.118;25.694;2022-08-26T15:39:18;18.83;;;4.05;;
33844;SDS011;20145;43.118;25.694;2022-08-26T15:41:44;15.52;;;4.60;;
33844;SDS011;20145;43.118;25.694;2022-08-26T15:44:10;12.63;;;3.97;;
33844;SDS011;20145;43.118;25.694;2022-08-26T15:46:38;16.30;;;3.80;;
33844;SDS011;20145;43.118;25.694;2022-08-26T15:49:04;12.48;;;4.35;;
33844;SDS011;20145;43.118;25.694;2022-08-26T15:51:31;14.85;;;4.75;;
33844;SDS011;20145;43.118;25.694;2022-08-26T15:54:03;12.85;;;5.05;;
33844;SDS011;20145;43.118;25.694;2022-08-26T15:56:30;17.67;;;5.82;;
33844;SDS011;20145;43.118;25.694;2022-08-26T15:58:58;21.58;;;5.40;;
33844;SDS011;20145;43.118;25.694;2022-08-26T16:01:24;17.52;;;4.88;;
33844;SDS011;20145;43.118;25.694;2022-08-26T16:03:50;16.65;;;5.40;;
33844;SDS011;20145;43.118;25.694;2022-08-26T16:06:17;20.00;;;6.55;;
33844;SDS011;20145;43.118;25.694;2022-08-26T16:08:46;17.63;;;6.10;;
33844;SDS011;20145;43.118;25.694;2022-08-26T16:11:14;17.98;;;4.53;;
33844;SDS011;20145;43.118;25.694;2022-08-26T16:13:40;16.35;;;5.03;;